QAC542 EGCC-EHAM
Flight info
| Callsign | QAC542 |
|---|---|
| Flight time | N/A |
| Altitude | 31000 |
| Route | DESIG L603 LAMSO |
| Aircraft | B77L/H-SDE1E2E3FGHIJ2J3J4J5M1RWXY/LB1D1 |
Departure
| Time | 2026-05-05 16:26 |
|---|---|
| Airport | Manchester Airport (EGCC) |
Arrival
| Time | N/A |
|---|---|
| Airport | Amsterdam Airport Schiphol (EHAM) |
| Time | Latitude | Longitude | Altitude | Speed | Heading |
|---|---|---|---|---|---|
| 2026-05-05 16:03 | 53.36474 | -2.28745 | 244 ft | 0 kts | 228° |
| 2026-05-05 16:13 | 53.36511 | -2.28674 | 244 ft | 4 kts | 228° |
| 2026-05-05 16:13 | 53.36527 | -2.28646 | 245 ft | 4 kts | 210° |
| 2026-05-05 16:13 | 53.36535 | -2.28637 | 245 ft | 4 kts | 147° |
| 2026-05-05 16:14 | 53.36568 | -2.28694 | 245 ft | 1 kts | 134° |
| 2026-05-05 16:14 | 53.36571 | -2.28699 | 245 ft | 0 kts | 134° |
| 2026-05-05 16:16 | 53.36562 | -2.28685 | 245 ft | 2 kts | 134° |
| 2026-05-05 16:17 | 53.36538 | -2.28641 | 245 ft | 3 kts | 133° |
| 2026-05-05 16:17 | 53.36523 | -2.28615 | 245 ft | 3 kts | 133° |
| 2026-05-05 16:18 | 53.36387 | -2.28389 | 245 ft | 23 kts | 135° |
| 2026-05-05 16:18 | 53.36289 | -2.28222 | 245 ft | 18 kts | 135° |
| 2026-05-05 16:18 | 53.36107 | -2.27913 | 246 ft | 19 kts | 134° |
| 2026-05-05 16:19 | 53.35988 | -2.27833 | 246 ft | 19 kts | 185° |
| 2026-05-05 16:19 | 53.35855 | -2.27855 | 244 ft | 19 kts | 186° |
| 2026-05-05 16:19 | 53.35601 | -2.27952 | 242 ft | 19 kts | 227° |
| 2026-05-05 16:20 | 53.35392 | -2.28182 | 238 ft | 19 kts | 175° |
| 2026-05-05 16:20 | 53.35178 | -2.28412 | 237 ft | 20 kts | 230° |
| 2026-05-05 16:21 | 53.35003 | -2.28762 | 229 ft | 21 kts | 227° |
| 2026-05-05 16:22 | 53.34736 | -2.29260 | 230 ft | 6 kts | 232° |
| 2026-05-05 16:22 | 53.34697 | -2.29314 | 223 ft | 0 kts | 208° |
| 2026-05-05 16:23 | 53.34675 | -2.29330 | 221 ft | 5 kts | 200° |
| 2026-05-05 16:23 | 53.34608 | -2.29335 | 223 ft | 12 kts | 171° |
| 2026-05-05 16:23 | 53.34564 | -2.29167 | 225 ft | 10 kts | 48° |
| 2026-05-05 16:24 | 53.34573 | -2.29150 | 225 ft | 0 kts | 50° |
| 2026-05-05 16:25 | 53.34628 | -2.29040 | 226 ft | 39 kts | 51° |
| 2026-05-05 16:25 | 53.34993 | -2.28285 | 236 ft | 125 kts | 51° |
| 2026-05-05 16:26 | 53.36512 | -2.25098 | 1099 ft | 187 kts | 50° |
| 2026-05-05 16:26 | 53.38142 | -2.21694 | 2593 ft | 206 kts | 49° |
| 2026-05-05 16:27 | 53.39100 | -2.19685 | 2879 ft | 235 kts | 50° |
| 2026-05-05 16:27 | 53.40129 | -2.17515 | 3619 ft | 241 kts | 50° |
| 2026-05-05 16:27 | 53.41177 | -2.15297 | 4403 ft | 243 kts | 51° |
| 2026-05-05 16:27 | 53.42241 | -2.13036 | 4936 ft | 255 kts | 51° |
| 2026-05-05 16:28 | 53.43356 | -2.10663 | 5045 ft | 262 kts | 51° |
| 2026-05-05 16:28 | 53.44493 | -2.08236 | 5645 ft | 265 kts | 51° |
| 2026-05-05 16:28 | 53.45629 | -2.05808 | 6601 ft | 266 kts | 51° |
| 2026-05-05 16:28 | 53.46789 | -2.03327 | 7334 ft | 274 kts | 51° |
| 2026-05-05 16:29 | 53.47977 | -2.00784 | 8116 ft | 280 kts | 50° |
| 2026-05-05 16:29 | 53.49213 | -1.98204 | 8905 ft | 286 kts | 49° |
| 2026-05-05 16:29 | 53.50491 | -1.95612 | 9730 ft | 291 kts | 49° |
| 2026-05-05 16:29 | 53.51768 | -1.92963 | 10458 ft | 294 kts | 54° |
| 2026-05-05 16:30 | 53.52665 | -1.89831 | 11156 ft | 302 kts | 75° |
| 2026-05-05 16:30 | 53.52733 | -1.86363 | 11951 ft | 304 kts | 103° |
| 2026-05-05 16:30 | 53.52077 | -1.82906 | 12797 ft | 312 kts | 111° |
| 2026-05-05 16:30 | 53.51273 | -1.79416 | 13090 ft | 339 kts | 111° |
| 2026-05-05 16:31 | 53.50426 | -1.75552 | 13316 ft | 367 kts | 109° |
| 2026-05-05 16:31 | 53.49584 | -1.71310 | 13784 ft | 386 kts | 108° |
| 2026-05-05 16:31 | 53.48788 | -1.66946 | 14519 ft | 395 kts | 107° |
| 2026-05-05 16:31 | 53.48002 | -1.62482 | 15362 ft | 401 kts | 107° |
| 2026-05-05 16:32 | 53.47223 | -1.58031 | 16233 ft | 405 kts | 107° |
| 2026-05-05 16:32 | 53.46414 | -1.53484 | 17108 ft | 409 kts | 107° |
| 2026-05-05 16:32 | 53.45586 | -1.48890 | 17939 ft | 415 kts | 108° |
| 2026-05-05 16:32 | 53.44742 | -1.44224 | 18707 ft | 420 kts | 108° |
| 2026-05-05 16:33 | 53.43888 | -1.39510 | 19467 ft | 424 kts | 108° |
| 2026-05-05 16:33 | 53.43030 | -1.34773 | 20248 ft | 427 kts | 108° |
| 2026-05-05 16:33 | 53.42161 | -1.29986 | 20996 ft | 430 kts | 108° |
| 2026-05-05 16:33 | 53.41291 | -1.25161 | 21732 ft | 435 kts | 107° |
| 2026-05-05 16:34 | 53.40435 | -1.20278 | 22434 ft | 439 kts | 107° |
| 2026-05-05 16:34 | 53.39550 | -1.15347 | 23172 ft | 443 kts | 108° |
| 2026-05-05 16:34 | 53.38642 | -1.10395 | 23829 ft | 447 kts | 108° |
| 2026-05-05 16:34 | 53.37721 | -1.05410 | 24457 ft | 450 kts | 108° |
| 2026-05-05 16:35 | 53.36790 | -1.00389 | 25086 ft | 452 kts | 108° |
| 2026-05-05 16:35 | 53.35857 | -0.95354 | 25720 ft | 454 kts | 108° |
| 2026-05-05 16:35 | 53.34918 | -0.90291 | 26318 ft | 458 kts | 108° |
| 2026-05-05 16:35 | 53.33971 | -0.85189 | 26940 ft | 460 kts | 108° |
| 2026-05-05 16:36 | 53.33016 | -0.80059 | 27548 ft | 463 kts | 108° |
| 2026-05-05 16:36 | 53.32059 | -0.74920 | 28155 ft | 465 kts | 108° |
| 2026-05-05 16:36 | 53.31090 | -0.69744 | 28708 ft | 468 kts | 108° |
| 2026-05-05 16:36 | 53.30110 | -0.64532 | 29267 ft | 470 kts | 108° |
| 2026-05-05 16:37 | 53.29129 | -0.59333 | 30070 ft | 467 kts | 108° |
| 2026-05-05 16:37 | 53.28157 | -0.54190 | 30799 ft | 462 kts | 107° |
| 2026-05-05 16:37 | 53.27189 | -0.49083 | 31400 ft | 461 kts | 108° |
| 2026-05-05 16:37 | 53.26217 | -0.43962 | 31909 ft | 462 kts | 108° |
| 2026-05-05 16:38 | 53.25250 | -0.38857 | 32432 ft | 462 kts | 107° |
| 2026-05-05 16:38 | 53.24285 | -0.33747 | 32939 ft | 462 kts | 108° |
| 2026-05-05 16:38 | 53.22321 | -0.23445 | 32995 ft | 468 kts | 108° |
| 2026-05-05 16:39 | 53.20332 | -0.13163 | 32997 ft | 469 kts | 108° |
| 2026-05-05 16:39 | 53.18333 | -0.02857 | 32987 ft | 465 kts | 108° |
| 2026-05-05 16:40 | 53.16346 | 0.07370 | 33000 ft | 464 kts | 109° |
| 2026-05-05 16:40 | 53.14354 | 0.17598 | 32996 ft | 465 kts | 109° |
| 2026-05-05 16:41 | 53.12345 | 0.27862 | 32987 ft | 467 kts | 109° |
| 2026-05-05 16:41 | 53.10320 | 0.38147 | 32985 ft | 468 kts | 109° |
| 2026-05-05 16:42 | 53.08281 | 0.48455 | 32982 ft | 470 kts | 109° |
| 2026-05-05 16:42 | 53.05267 | 0.63585 | 32988 ft | 472 kts | 109° |
| 2026-05-05 16:43 | 52.97213 | 1.05232 | 32985 ft | 476 kts | 103° |
| 2026-05-05 16:43 | 52.93452 | 1.38315 | 32944 ft | 479 kts | 103° |
| 2026-05-05 16:44 | 52.92054 | 1.50097 | 32961 ft | 479 kts | 103° |
| 2026-05-05 16:44 | 52.89521 | 1.71197 | 32405 ft | 453 kts | 103° |
| 2026-05-05 16:45 | 52.87072 | 1.91271 | 30468 ft | 439 kts | 104° |
| 2026-05-05 16:45 | 52.84651 | 2.10824 | 28417 ft | 427 kts | 104° |
| 2026-05-05 16:45 | 52.82270 | 2.29799 | 26531 ft | 416 kts | 104° |
| 2026-05-05 16:45 | 52.79916 | 2.48318 | 24780 ft | 406 kts | 104° |
| 2026-05-05 16:46 | 52.78951 | 2.55812 | 24088 ft | 403 kts | 104° |
| 2026-05-05 16:46 | 52.78365 | 2.60331 | 23654 ft | 402 kts | 104° |
| 2026-05-05 16:46 | 52.77779 | 2.64842 | 23173 ft | 401 kts | 104° |
| 2026-05-05 16:46 | 52.77194 | 2.69336 | 22967 ft | 403 kts | 104° |
| 2026-05-05 16:47 | 52.75200 | 2.84625 | 22965 ft | 410 kts | 104° |
| 2026-05-05 16:47 | 52.73328 | 2.98946 | 22910 ft | 402 kts | 108° |
| 2026-05-05 16:47 | 52.70128 | 3.08859 | 21907 ft | 386 kts | 124° |
| 2026-05-05 16:47 | 52.64720 | 3.23848 | 20223 ft | 376 kts | 122° |
| 2026-05-05 16:48 | 52.59530 | 3.38546 | 18616 ft | 367 kts | 122° |
| 2026-05-05 16:48 | 52.56910 | 3.54477 | 16766 ft | 361 kts | 109° |
| 2026-05-05 16:48 | 52.51940 | 3.68428 | 14986 ft | 351 kts | 126° |
| 2026-05-05 16:48 | 52.50261 | 3.72481 | 14601 ft | 344 kts | 126° |
| 2026-05-05 16:49 | 52.48934 | 3.75694 | 14365 ft | 337 kts | 126° |
| 2026-05-05 16:49 | 52.47639 | 3.78835 | 14160 ft | 328 kts | 125° |
| 2026-05-05 16:49 | 52.46380 | 3.81892 | 13939 ft | 321 kts | 125° |
| 2026-05-05 16:49 | 52.45136 | 3.84915 | 13585 ft | 318 kts | 125° |
| 2026-05-05 16:50 | 52.43903 | 3.87907 | 13167 ft | 316 kts | 125° |
| 2026-05-05 16:50 | 52.42684 | 3.90862 | 12870 ft | 311 kts | 125° |
| 2026-05-05 16:50 | 52.41473 | 3.93799 | 12415 ft | 311 kts | 125° |
| 2026-05-05 16:50 | 52.40268 | 3.96717 | 12116 ft | 306 kts | 125° |
| 2026-05-05 16:51 | 52.39078 | 3.99596 | 11636 ft | 303 kts | 125° |
| 2026-05-05 16:51 | 52.38298 | 4.01482 | 11162 ft | 302 kts | 125° |
| 2026-05-05 16:51 | 52.37129 | 4.04306 | 10516 ft | 297 kts | 125° |
| 2026-05-05 16:51 | 52.35587 | 4.08026 | 9625 ft | 293 kts | 125° |
| 2026-05-05 16:52 | 52.34467 | 4.10727 | 8944 ft | 289 kts | 125° |
| 2026-05-05 16:52 | 52.30924 | 4.19243 | 6773 ft | 280 kts | 125° |
| 2026-05-05 16:52 | 52.28363 | 4.25385 | 5285 ft | 282 kts | 124° |
| 2026-05-05 16:52 | 52.26912 | 4.28860 | 4849 ft | 277 kts | 124° |
| 2026-05-05 16:53 | 52.25840 | 4.31422 | 4635 ft | 272 kts | 124° |
| 2026-05-05 16:53 | 52.25136 | 4.33100 | 4500 ft | 268 kts | 124° |
| 2026-05-05 16:53 | 52.24099 | 4.35573 | 4277 ft | 259 kts | 124° |
| 2026-05-05 16:53 | 52.23178 | 4.38070 | 4058 ft | 249 kts | 115° |
| 2026-05-05 16:54 | 52.22477 | 4.40544 | 3907 ft | 237 kts | 113° |
| 2026-05-05 16:54 | 52.21826 | 4.42891 | 3904 ft | 217 kts | 114° |
| 2026-05-05 16:54 | 52.21208 | 4.45087 | 3557 ft | 215 kts | 112° |
| 2026-05-05 16:54 | 52.20840 | 4.47358 | 3293 ft | 200 kts | 93° |
| 2026-05-05 16:55 | 52.20788 | 4.49548 | 3125 ft | 190 kts | 89° |
| 2026-05-05 16:55 | 52.20771 | 4.51657 | 2885 ft | 181 kts | 84° |
| 2026-05-05 16:55 | 52.21137 | 4.53472 | 2662 ft | 160 kts | 54° |
| 2026-05-05 16:55 | 52.21715 | 4.54965 | 2495 ft | 158 kts | 57° |
| 2026-05-05 16:56 | 52.22307 | 4.56555 | 2337 ft | 169 kts | 56° |
| 2026-05-05 16:56 | 52.22925 | 4.58176 | 2080 ft | 164 kts | 56° |
| 2026-05-05 16:56 | 52.23499 | 4.59671 | 1968 ft | 150 kts | 55° |
| 2026-05-05 16:56 | 52.24074 | 4.61161 | 1800 ft | 157 kts | 54° |
| 2026-05-05 16:57 | 52.24651 | 4.62661 | 1579 ft | 153 kts | 55° |
| 2026-05-05 16:57 | 52.25210 | 4.64113 | 1339 ft | 150 kts | 55° |
| 2026-05-05 16:57 | 52.25759 | 4.65537 | 1145 ft | 147 kts | 55° |
| 2026-05-05 16:57 | 52.26306 | 4.66961 | 937 ft | 149 kts | 55° |
| 2026-05-05 16:58 | 52.26844 | 4.68402 | 784 ft | 148 kts | 56° |
| 2026-05-05 16:58 | 52.27384 | 4.69818 | 577 ft | 146 kts | 55° |
| 2026-05-05 16:58 | 52.27933 | 4.71191 | 390 ft | 145 kts | 54° |
| 2026-05-05 16:58 | 52.28469 | 4.72581 | 208 ft | 144 kts | 56° |
| 2026-05-05 16:59 | 52.28999 | 4.73949 | 43 ft | 143 kts | 57° |
| 2026-05-05 16:59 | 52.29512 | 4.75281 | 2 ft | 128 kts | 59° |